createdAt,value
2019-02-22T00:02:00.307Z,99.90
2019-02-22T00:04:29.545Z,99.90
2019-02-22T00:06:58.692Z,99.90
2019-02-22T00:09:27.841Z,99.90
2019-02-22T00:11:56.977Z,99.90
2019-02-22T00:14:26.082Z,99.90
2019-02-22T00:16:55.266Z,99.90
2019-02-22T00:19:24.383Z,99.90
2019-02-22T00:21:53.502Z,99.90
2019-02-22T00:24:22.732Z,99.90
2019-02-22T00:26:51.845Z,99.90
2019-02-22T00:29:21.045Z,99.90
2019-02-22T00:31:50.203Z,99.90
2019-02-22T00:34:19.322Z,99.90
2019-02-22T00:36:48.535Z,99.90
2019-02-22T00:39:17.829Z,99.90
2019-02-22T00:41:46.972Z,99.90
2019-02-22T00:44:16.114Z,99.90
2019-02-22T00:46:45.333Z,99.90
2019-02-22T00:49:14.529Z,99.90
2019-02-22T00:51:43.653Z,99.90
2019-02-22T00:54:12.861Z,99.90
2019-02-22T00:56:41.993Z,99.90
2019-02-22T00:59:11.183Z,99.90
2019-02-22T01:01:40.336Z,99.90
2019-02-22T01:04:09.494Z,99.90
2019-02-22T01:06:38.609Z,99.90
2019-02-22T01:09:07.926Z,99.90
2019-02-22T01:11:37.072Z,99.90
2019-02-22T01:14:06.173Z,99.90
2019-02-22T01:16:35.316Z,99.90
2019-02-22T01:19:04.473Z,99.90
2019-02-22T01:21:33.618Z,99.90
2019-02-22T01:24:03.277Z,99.90
2019-02-22T01:26:32.421Z,99.90
2019-02-22T01:29:04.481Z,99.90
2019-02-22T01:31:33.597Z,99.90
2019-02-22T01:34:02.801Z,99.90
2019-02-22T01:36:31.922Z,99.90
2019-02-22T01:39:01.102Z,99.90
2019-02-22T01:41:30.214Z,99.90
2019-02-22T01:43:59.419Z,99.90
2019-02-22T01:46:28.546Z,99.90
2019-02-22T01:48:57.700Z,99.90
2019-02-22T01:51:26.857Z,99.90
2019-02-22T01:53:55.958Z,99.90
2019-02-22T01:56:25.245Z,99.90
2019-02-22T01:58:54.514Z,99.90
2019-02-22T02:01:23.715Z,99.90
2019-02-22T02:03:52.865Z,99.90
2019-02-22T02:06:22.058Z,99.90
2019-02-22T02:08:51.187Z,99.90
2019-02-22T02:11:20.339Z,99.90
2019-02-22T02:13:49.463Z,99.90
2019-02-22T02:16:18.625Z,99.90
2019-02-22T02:18:47.858Z,99.90
2019-02-22T02:21:17.037Z,99.90
2019-02-22T02:23:46.153Z,99.90
2019-02-22T02:26:15.319Z,99.90
2019-02-22T02:28:44.447Z,99.90
2019-02-22T02:31:13.658Z,99.90
2019-02-22T02:33:42.862Z,99.90
2019-02-22T02:36:12.005Z,99.90
2019-02-22T02:38:41.127Z,99.90
2019-02-22T02:41:11.584Z,99.90
2019-02-22T02:43:40.961Z,99.90
2019-02-22T02:46:10.105Z,99.90
2019-02-22T02:48:39.547Z,99.90
2019-02-22T02:51:08.685Z,99.90
2019-02-22T02:53:37.821Z,99.90
2019-02-22T02:56:06.950Z,99.90
2019-02-22T02:58:36.065Z,99.90
2019-02-22T03:01:05.270Z,99.90
2019-02-22T03:03:34.428Z,99.90
2019-02-22T03:06:21.251Z,99.90
2019-02-22T03:08:50.453Z,99.90
2019-02-22T03:11:20.973Z,99.90
2019-02-22T03:13:50.533Z,99.90
2019-02-22T03:16:19.688Z,99.90
2019-02-22T03:18:48.860Z,99.90
2019-02-22T03:21:18.056Z,99.90
2019-02-22T03:23:47.186Z,99.90
2019-02-22T03:26:16.418Z,99.90
2019-02-22T03:28:45.538Z,99.90
2019-02-22T03:31:14.687Z,99.90
2019-02-22T03:33:43.846Z,99.90
2019-02-22T03:36:12.978Z,99.90
2019-02-22T03:38:42.133Z,99.90
2019-02-22T03:41:11.293Z,99.90
2019-02-22T03:43:40.488Z,99.90
2019-02-22T03:46:09.605Z,99.90
2019-02-22T03:48:38.729Z,99.90
2019-02-22T03:51:07.838Z,99.90
2019-02-22T03:53:41.614Z,99.90
2019-02-22T03:56:10.793Z,99.90
2019-02-22T03:58:39.907Z,99.90
2019-02-22T04:01:09.034Z,99.90
2019-02-22T04:03:38.266Z,99.90
2019-02-22T04:06:07.509Z,99.90
2019-02-22T04:08:36.791Z,99.90
2019-02-22T04:11:06.094Z,99.90
2019-02-22T04:13:35.880Z,99.90
2019-02-22T04:16:05.362Z,99.90
2019-02-22T04:18:34.997Z,99.90
2019-02-22T04:21:04.497Z,99.90
2019-02-22T04:23:33.801Z,99.90
2019-02-22T04:26:03.131Z,99.90
2019-02-22T04:28:32.670Z,99.90
2019-02-22T04:31:01.991Z,99.90
2019-02-22T04:33:31.315Z,99.90
2019-02-22T04:36:00.689Z,99.90
2019-02-22T04:38:29.797Z,99.90
2019-02-22T04:40:58.922Z,99.90
2019-02-22T04:43:28.077Z,99.90
2019-02-22T04:45:57.186Z,99.90
2019-02-22T04:48:26.366Z,99.90
2019-02-22T04:50:55.569Z,99.90
2019-02-22T04:53:24.664Z,99.90
2019-02-22T04:55:53.805Z,99.90
2019-02-22T04:58:23.062Z,99.90
2019-02-22T05:00:52.164Z,99.90
2019-02-22T05:03:21.260Z,99.90
2019-02-22T05:05:50.378Z,99.90
2019-02-22T05:08:19.494Z,99.90
2019-02-22T05:10:48.649Z,99.90
2019-02-22T05:13:17.759Z,99.90
2019-02-22T05:15:46.859Z,99.90
2019-02-22T05:18:15.978Z,99.90
2019-02-22T05:20:45.114Z,99.90
2019-02-22T05:23:14.239Z,99.90
2019-02-22T05:25:43.411Z,99.90
2019-02-22T05:28:12.595Z,99.90
2019-02-22T05:30:41.752Z,99.90
2019-02-22T05:33:10.865Z,99.90
2019-02-22T05:35:39.974Z,99.90
2019-02-22T05:38:09.108Z,99.90
2019-02-22T05:40:38.236Z,99.90
2019-02-22T05:43:07.401Z,99.90
2019-02-22T05:45:36.533Z,99.90
2019-02-22T05:48:05.673Z,99.90
2019-02-22T05:50:34.905Z,99.90
2019-02-22T05:53:04.122Z,99.70
2019-02-22T05:55:33.317Z,99.30
2019-02-22T05:58:02.446Z,99.60
2019-02-22T06:00:31.616Z,99.30
2019-02-22T06:03:00.825Z,99.80
2019-02-22T06:05:29.925Z,99.30
2019-02-22T06:07:59.115Z,98.90
2019-02-22T06:10:28.277Z,98.90
2019-02-22T06:12:57.405Z,99.10
2019-02-22T06:15:26.516Z,98.70
2019-02-22T06:17:55.639Z,98.90
2019-02-22T06:20:24.826Z,98.60
2019-02-22T06:22:53.917Z,98.90
2019-02-22T06:25:23.994Z,98.90
2019-02-22T06:27:53.129Z,98.20
2019-02-22T06:30:22.233Z,98.00
2019-02-22T06:32:51.361Z,98.20
2019-02-22T06:35:20.569Z,98.20
2019-02-22T06:37:49.858Z,98.10
2019-02-22T06:40:18.973Z,98.20
2019-02-22T06:42:48.131Z,97.30
2019-02-22T06:45:17.221Z,97.30
2019-02-22T06:47:46.354Z,97.60
2019-02-22T06:50:15.517Z,97.70
2019-02-22T06:52:44.627Z,98.00
2019-02-22T06:55:13.789Z,97.30
2019-02-22T06:57:43.001Z,97.50
2019-02-22T07:00:12.406Z,97.60
2019-02-22T07:02:41.518Z,98.00
2019-02-22T07:05:10.651Z,98.80
2019-02-22T07:07:40.112Z,98.80
2019-02-22T07:10:09.675Z,98.60
2019-02-22T07:12:42.281Z,99.90
2019-02-22T07:15:11.383Z,99.90
2019-02-22T07:17:40.906Z,99.90
2019-02-22T07:20:11.031Z,99.90
2019-02-22T07:22:40.178Z,99.90
2019-02-22T07:25:10.237Z,99.10
2019-02-22T07:27:39.369Z,98.50
2019-02-22T07:30:09.345Z,97.60
2019-02-22T07:32:38.451Z,97.00
2019-02-22T07:35:09.698Z,96.80
2019-02-22T07:37:38.829Z,96.40
2019-02-22T07:40:08.229Z,95.50
2019-02-22T07:42:37.389Z,95.50
2019-02-22T07:45:08.458Z,94.90
2019-02-22T07:47:37.571Z,95.00
2019-02-22T07:50:08.125Z,95.00
2019-02-22T07:52:37.286Z,95.00
2019-02-22T07:55:07.034Z,94.60
2019-02-22T07:57:36.320Z,94.80
2019-02-22T08:00:07.374Z,95.20
2019-02-22T08:02:36.520Z,95.60
2019-02-22T08:05:08.820Z,95.40
2019-02-22T08:07:36.817Z,95.70
2019-02-22T08:10:06.353Z,95.80
2019-02-22T08:12:35.505Z,95.90
2019-02-22T08:15:04.829Z,96.30
2019-02-22T08:17:34.002Z,97.00
2019-02-22T08:20:03.130Z,96.80
2019-02-22T08:22:32.243Z,96.90
2019-02-22T08:25:01.403Z,96.90
2019-02-22T08:27:30.578Z,97.20
2019-02-22T08:29:59.807Z,97.10
2019-02-22T08:32:28.967Z,97.70
2019-02-22T08:34:58.203Z,97.40
2019-02-22T08:37:27.350Z,97.60
2019-02-22T08:39:58.877Z,97.40
2019-02-22T08:42:27.353Z,97.00
2019-02-22T08:44:56.507Z,96.90
2019-02-22T08:47:25.693Z,97.20
2019-02-22T08:49:54.798Z,96.70
2019-02-22T08:52:23.978Z,96.90
2019-02-22T08:54:53.099Z,97.60
2019-02-22T08:57:22.241Z,96.40
2019-02-22T08:59:51.365Z,96.70
2019-02-22T09:02:20.487Z,96.00
2019-02-22T09:04:49.612Z,95.70
2019-02-22T09:07:18.781Z,96.70
2019-02-22T09:09:48.070Z,96.10
2019-02-22T09:12:17.366Z,96.30
2019-02-22T09:14:46.481Z,95.30
2019-02-22T09:17:15.596Z,94.80
2019-02-22T09:19:44.801Z,93.90
2019-02-22T09:22:22.400Z,92.00
2019-02-22T09:24:44.841Z,91.60
2019-02-22T09:27:13.961Z,91.40
2019-02-22T09:29:43.214Z,91.40
2019-02-22T09:32:12.357Z,90.90
2019-02-22T09:34:41.477Z,89.70
2019-02-22T09:37:10.652Z,88.20
2019-02-22T09:39:40.074Z,88.30
2019-02-22T09:42:09.277Z,86.90
2019-02-22T09:44:38.388Z,84.50
2019-02-22T09:47:07.533Z,78.60
2019-02-22T09:49:36.666Z,80.00
2019-02-22T09:52:05.941Z,81.40
2019-02-22T09:54:35.090Z,81.40
2019-02-22T09:57:04.461Z,79.60
2019-02-22T09:59:33.585Z,60.40
2019-02-22T10:02:02.693Z,56.30
2019-02-22T10:04:31.821Z,60.00
2019-02-22T10:07:00.954Z,65.70
2019-02-22T10:09:30.169Z,69.40
2019-02-22T10:11:59.311Z,72.20
2019-02-22T10:14:28.672Z,72.60
2019-02-22T10:16:57.842Z,73.60
2019-02-22T10:19:27.066Z,72.90
2019-02-22T10:21:57.667Z,73.40
2019-02-22T10:24:27.005Z,74.30
2019-02-22T10:26:56.125Z,73.60
2019-02-22T10:29:25.308Z,74.50
2019-02-22T10:31:54.416Z,75.10
2019-02-22T10:34:23.560Z,74.90
2019-02-22T10:36:52.678Z,72.70
2019-02-22T10:39:21.794Z,71.70
2019-02-22T10:41:50.995Z,73.50
2019-02-22T10:44:20.092Z,73.60
2019-02-22T10:46:49.249Z,73.00
2019-02-22T10:49:18.684Z,72.70
2019-02-22T10:51:47.804Z,72.80
2019-02-22T10:54:17.045Z,73.60
2019-02-22T10:56:46.189Z,76.10
2019-02-22T10:59:15.369Z,76.30
2019-02-22T11:01:44.514Z,75.90
2019-02-22T11:04:13.652Z,75.90
2019-02-22T11:06:42.789Z,74.40
2019-02-22T11:09:12.231Z,71.90
2019-02-22T11:11:41.855Z,73.90
2019-02-22T11:14:10.977Z,74.50
2019-02-22T11:16:40.073Z,73.90
2019-02-22T11:19:09.192Z,74.10
2019-02-22T11:21:38.353Z,75.10
2019-02-22T11:24:07.507Z,71.50
2019-02-22T11:26:36.699Z,73.00
2019-02-22T11:29:05.854Z,73.60
2019-02-22T11:31:35.079Z,74.00
2019-02-22T11:34:05.498Z,73.30
2019-02-22T11:36:34.704Z,73.10
2019-02-22T11:39:05.451Z,73.30
2019-02-22T11:41:34.566Z,72.10
2019-02-22T11:44:03.677Z,70.60
2019-02-22T11:46:32.858Z,71.90
2019-02-22T11:49:02.060Z,72.50
2019-02-22T11:51:31.153Z,73.70
2019-02-22T11:54:00.290Z,73.90
2019-02-22T11:56:29.414Z,74.60
2019-02-22T11:58:58.541Z,72.90
2019-02-22T12:01:27.745Z,73.00
2019-02-22T12:03:57.021Z,73.30
2019-02-22T12:06:26.154Z,67.90
2019-02-22T12:08:55.293Z,68.40
2019-02-22T12:11:24.486Z,64.80
2019-02-22T12:13:53.609Z,66.60
2019-02-22T12:16:22.741Z,60.40
2019-02-22T12:18:51.907Z,59.80
2019-02-22T12:21:23.092Z,61.60
2019-02-22T12:23:52.951Z,65.10
2019-02-22T12:26:22.349Z,64.00
2019-02-22T12:28:51.589Z,62.70
2019-02-22T12:31:20.801Z,64.80
2019-02-22T12:33:49.958Z,68.10
2019-02-22T12:36:19.114Z,67.50
2019-02-22T12:38:48.234Z,67.20
2019-02-22T12:41:17.395Z,70.10
2019-02-22T12:43:46.588Z,71.10
2019-02-22T12:46:15.851Z,71.30
2019-02-22T12:48:44.946Z,70.80
2019-02-22T12:51:14.051Z,71.80
2019-02-22T12:53:43.166Z,71.30
2019-02-22T12:56:12.305Z,70.60
2019-02-22T12:58:41.440Z,70.50
2019-02-22T13:01:10.553Z,70.10
2019-02-22T13:03:39.734Z,69.80
2019-02-22T13:06:08.837Z,68.90
2019-02-22T13:08:37.965Z,67.70
2019-02-22T13:11:07.233Z,67.90
2019-02-22T13:13:36.489Z,66.40
2019-02-22T13:16:05.645Z,64.00
2019-02-22T13:18:34.965Z,64.90
2019-02-22T13:21:04.079Z,64.20
2019-02-22T13:23:33.183Z,64.90
2019-02-22T13:26:02.347Z,65.10
2019-02-22T13:28:31.462Z,66.00
2019-02-22T13:31:00.574Z,65.80
2019-02-22T13:33:29.705Z,67.20
2019-02-22T13:35:58.818Z,66.70
2019-02-22T13:38:27.945Z,65.80
2019-02-22T13:40:57.089Z,64.80
2019-02-22T13:43:26.414Z,65.10
2019-02-22T13:45:55.560Z,63.90
2019-02-22T13:48:24.766Z,63.40
2019-02-22T13:50:53.977Z,64.10
2019-02-22T13:53:23.064Z,64.60
2019-02-22T13:55:52.194Z,63.30
2019-02-22T13:58:21.309Z,62.50
2019-02-22T14:00:50.437Z,59.90
2019-02-22T14:03:19.552Z,60.60
2019-02-22T14:05:48.679Z,61.10
2019-02-22T14:08:17.793Z,60.30
2019-02-22T14:10:47.005Z,60.00
2019-02-22T14:13:16.127Z,60.20
2019-02-22T14:15:45.334Z,59.00
2019-02-22T14:18:14.442Z,58.90
2019-02-22T14:20:43.594Z,55.80
2019-02-22T14:23:12.777Z,54.50
2019-02-22T14:25:41.940Z,54.70
2019-02-22T14:28:12.180Z,55.20
2019-02-22T14:30:41.558Z,55.30
2019-02-22T14:33:10.757Z,55.40
2019-02-22T14:35:39.857Z,54.50
2019-02-22T14:38:08.997Z,55.50
2019-02-22T14:40:38.149Z,55.70
2019-02-22T14:43:15.989Z,56.40
2019-02-22T14:45:48.485Z,57.70
2019-02-22T14:48:09.017Z,57.40
2019-02-22T14:50:38.117Z,56.30
2019-02-22T14:53:07.311Z,56.70
2019-02-22T14:55:36.433Z,56.90
2019-02-22T14:58:05.545Z,56.00
2019-02-22T15:00:34.678Z,56.60
2019-02-22T15:03:03.829Z,56.00
2019-02-22T15:05:33.010Z,56.40
2019-02-22T15:08:02.150Z,56.10
2019-02-22T15:10:31.286Z,56.60
2019-02-22T15:13:00.395Z,56.40
2019-02-22T15:16:03.841Z,56.10
2019-02-22T15:18:31.894Z,56.00
2019-02-22T15:21:01.048Z,56.50
2019-02-22T15:23:30.194Z,56.80
2019-02-22T15:25:59.305Z,56.80
2019-02-22T15:28:28.446Z,55.10
2019-02-22T15:30:57.598Z,55.20
2019-02-22T15:33:26.805Z,55.80
2019-02-22T15:35:55.922Z,55.90
2019-02-22T15:38:25.058Z,55.20
2019-02-22T15:40:54.179Z,53.90
2019-02-22T15:43:23.377Z,54.10
2019-02-22T15:45:52.547Z,53.50
2019-02-22T15:48:21.673Z,52.60
2019-02-22T15:50:50.849Z,52.20
2019-02-22T15:53:20.002Z,52.00
2019-02-22T15:55:49.150Z,53.10
2019-02-22T15:58:18.289Z,53.70
2019-02-22T16:00:47.407Z,54.40
2019-02-22T16:03:16.514Z,53.60
2019-02-22T16:05:46.401Z,51.70
2019-02-22T16:08:15.506Z,52.00
2019-02-22T16:10:44.625Z,51.10
2019-02-22T16:13:13.750Z,51.00
2019-02-22T16:15:43.026Z,52.50
2019-02-22T16:18:12.170Z,52.30
2019-02-22T16:20:41.289Z,52.70
2019-02-22T16:23:10.470Z,53.20
2019-02-22T16:25:39.645Z,53.60
2019-02-22T16:28:08.797Z,53.60
2019-02-22T16:30:38.586Z,53.90
2019-02-22T16:33:07.722Z,54.40
2019-02-22T16:35:36.898Z,54.40
2019-02-22T16:38:06.102Z,54.50
2019-02-22T16:40:35.265Z,54.30
2019-02-22T16:43:04.378Z,55.40
2019-02-22T16:45:33.616Z,55.50
2019-02-22T16:48:02.789Z,56.50
2019-02-22T16:50:31.995Z,56.20
2019-02-22T16:53:01.113Z,57.00
2019-02-22T16:55:30.221Z,57.40
2019-02-22T16:57:59.372Z,58.00
2019-02-22T17:00:28.473Z,58.00
2019-02-22T17:02:57.621Z,58.50
2019-02-22T17:05:26.797Z,58.30
2019-02-22T17:07:56.001Z,58.40
2019-02-22T17:10:25.125Z,58.70
2019-02-22T17:12:54.238Z,58.70
2019-02-22T17:15:23.473Z,58.60
2019-02-22T17:17:52.571Z,58.00
2019-02-22T17:20:21.707Z,58.60
2019-02-22T17:22:50.829Z,57.90
2019-02-22T17:25:20.046Z,57.70
2019-02-22T17:27:49.221Z,57.10
2019-02-22T17:30:18.361Z,57.70
2019-02-22T17:32:47.529Z,56.60
2019-02-22T17:35:16.670Z,56.00
2019-02-22T17:37:45.806Z,56.40
2019-02-22T17:40:15.030Z,56.90
2019-02-22T17:42:44.137Z,56.30
2019-02-22T17:45:13.278Z,56.40
2019-02-22T17:47:42.409Z,56.50
2019-02-22T17:50:11.677Z,56.70
2019-02-22T17:52:40.867Z,57.30
2019-02-22T17:55:09.989Z,57.80
2019-02-22T17:57:39.149Z,59.00
2019-02-22T18:00:11.642Z,59.70
2019-02-22T18:02:40.774Z,60.80
2019-02-22T18:05:09.894Z,60.10
2019-02-22T18:07:39.116Z,61.00
2019-02-22T18:10:08.529Z,61.10
2019-02-22T18:12:37.653Z,61.40
2019-02-22T18:15:07.399Z,61.80
2019-02-22T18:17:36.669Z,62.40
2019-02-22T18:20:06.325Z,63.40
2019-02-22T18:22:35.444Z,62.40
2019-02-22T18:25:04.685Z,63.40
2019-02-22T18:27:33.801Z,63.80
2019-02-22T18:30:02.942Z,63.30
2019-02-22T18:32:32.089Z,63.30
2019-02-22T18:35:01.213Z,63.00
2019-02-22T18:37:30.324Z,63.30
2019-02-22T18:39:59.457Z,63.50
2019-02-22T18:42:28.557Z,63.40
2019-02-22T18:44:57.677Z,63.60
2019-02-22T18:47:26.846Z,63.70
2019-02-22T18:49:56.030Z,64.20
2019-02-22T18:52:25.142Z,64.50
2019-02-22T18:54:54.330Z,65.20
2019-02-22T18:57:23.481Z,66.00
2019-02-22T18:59:52.666Z,66.00
2019-02-22T19:02:21.877Z,66.10
2019-02-22T19:04:51.019Z,67.40
2019-02-22T19:07:20.196Z,66.00
2019-02-22T19:09:49.336Z,65.70
2019-02-22T19:12:18.534Z,66.10
2019-02-22T19:14:47.682Z,66.70
2019-02-22T19:17:16.941Z,67.50
2019-02-22T19:19:46.053Z,67.70
2019-02-22T19:22:15.198Z,68.00
2019-02-22T19:24:44.351Z,68.20
2019-02-22T19:27:13.605Z,68.30
2019-02-22T19:29:42.901Z,68.10
2019-02-22T19:32:12.053Z,67.20
2019-02-22T19:34:41.164Z,68.20
2019-02-22T19:37:10.349Z,68.50
2019-02-22T19:39:39.503Z,68.30
2019-02-22T19:42:08.621Z,69.00
2019-02-22T19:44:37.765Z,69.00
2019-02-22T19:47:06.898Z,68.40
2019-02-22T19:49:36.058Z,69.10
2019-02-22T19:52:05.604Z,68.90
2019-02-22T19:54:35.272Z,68.80
2019-02-22T19:57:04.517Z,69.60
2019-02-22T19:59:33.746Z,69.60
2019-02-22T20:02:02.891Z,70.20
2019-02-22T20:04:32.026Z,69.70
2019-02-22T20:07:01.344Z,70.30
2019-02-22T20:09:30.649Z,70.00
2019-02-22T20:11:59.781Z,70.20
2019-02-22T20:14:28.933Z,70.80
2019-02-22T20:16:58.173Z,70.80
2019-02-22T20:19:27.361Z,70.70
2019-02-22T20:21:56.465Z,71.00
2019-02-22T20:24:25.638Z,71.30
2019-02-22T20:26:54.801Z,71.10
2019-02-22T20:29:24.001Z,71.40
2019-02-22T20:31:53.157Z,72.00
2019-02-22T20:34:22.365Z,72.20
2019-02-22T20:36:51.633Z,72.40
2019-02-22T20:39:21.209Z,72.70
2019-02-22T20:41:52.113Z,73.40
2019-02-22T20:44:21.255Z,72.90
2019-02-22T20:46:50.529Z,74.00
2019-02-22T20:49:19.749Z,73.50
2019-02-22T20:51:48.870Z,73.20
2019-02-22T20:54:18.393Z,73.60
2019-02-22T20:56:47.497Z,73.20
2019-02-22T20:59:16.762Z,73.80
2019-02-22T21:01:45.981Z,73.50
2019-02-22T21:04:15.193Z,73.90
2019-02-22T21:06:44.371Z,74.60
2019-02-22T21:09:13.479Z,74.70
2019-02-22T21:11:42.597Z,74.30
2019-02-22T21:14:11.747Z,75.00
2019-02-22T21:16:40.851Z,74.90
2019-02-22T21:19:09.961Z,75.70
2019-02-22T21:21:39.101Z,75.90
2019-02-22T21:24:08.272Z,76.30
2019-02-22T21:26:37.401Z,76.60
2019-02-22T21:29:06.673Z,76.30
2019-02-22T21:31:35.845Z,76.10
2019-02-22T21:34:04.982Z,76.20
2019-02-22T21:36:34.180Z,76.70
2019-02-22T21:39:03.809Z,76.30
2019-02-22T21:41:32.933Z,76.20
2019-02-22T21:44:02.105Z,76.40
2019-02-22T21:46:31.297Z,76.70
2019-02-22T21:49:00.575Z,77.40
2019-02-22T21:51:29.740Z,77.40
2019-02-22T21:53:58.930Z,77.70
2019-02-22T21:56:28.177Z,78.10
2019-02-22T21:58:57.337Z,78.40
2019-02-22T22:01:26.461Z,78.60
2019-02-22T22:03:55.590Z,78.60
2019-02-22T22:06:24.757Z,79.00
2019-02-22T22:08:55.467Z,78.60
2019-02-22T22:11:24.866Z,78.90
2019-02-22T22:13:54.061Z,79.20
2019-02-22T22:16:23.196Z,79.50
2019-02-22T22:18:52.317Z,79.90
2019-02-22T22:21:21.493Z,79.70
2019-02-22T22:23:50.679Z,79.90
2019-02-22T22:26:19.797Z,80.00
2019-02-22T22:28:48.952Z,79.90
2019-02-22T22:31:18.086Z,79.00
2019-02-22T22:33:47.218Z,79.40
2019-02-22T22:36:16.398Z,79.40
2019-02-22T22:38:45.806Z,80.40
2019-02-22T22:41:14.964Z,79.70
2019-02-22T22:43:44.102Z,79.90
2019-02-22T22:46:13.245Z,79.70
2019-02-22T22:48:50.133Z,80.20
2019-02-22T22:51:13.293Z,79.70
2019-02-22T22:53:42.441Z,79.70
2019-02-22T22:56:11.581Z,79.40
2019-02-22T22:58:42.781Z,80.00
2019-02-22T23:01:28.534Z,79.90
2019-02-22T23:03:57.682Z,80.50
2019-02-22T23:06:26.833Z,80.00
2019-02-22T23:08:56.009Z,80.40
2019-02-22T23:11:25.113Z,80.70
2019-02-22T23:13:54.413Z,80.90
2019-02-22T23:16:23.597Z,81.00
2019-02-22T23:19:01.404Z,81.70
2019-02-22T23:21:23.658Z,81.20
2019-02-22T23:23:52.809Z,81.80
2019-02-22T23:26:22.007Z,81.10
2019-02-22T23:28:51.176Z,81.10
2019-02-22T23:31:20.313Z,81.50
2019-02-22T23:33:49.653Z,81.70
2019-02-22T23:36:18.776Z,81.90
2019-02-22T23:38:47.921Z,82.00
2019-02-22T23:41:17.081Z,82.70
2019-02-22T23:43:46.258Z,82.40
2019-02-22T23:46:15.453Z,81.30
2019-02-22T23:48:44.613Z,81.90
2019-02-22T23:51:13.741Z,81.80
2019-02-22T23:53:42.881Z,82.20
2019-02-22T23:56:12.053Z,81.70
2019-02-22T23:58:41.201Z,81.80
